Latest Coastal Weather Observations for Hindmarsh Island

IDS60701

Issued at 5:45 am CST Wednesday 1 October 2014 (issued every 10 minutes, with the page automatically refreshed every 10 minutes)

About coastal observations | Map of coastal stations | Coastal observations for SA | Marine services | Other Formats
Station Details ID: 023894 Name: HINDMARSH ISLAND AWS Lat: -35.52 Lon: 138.82 Height: 11.0 m
Data from the previous 72 hours. | See also: Recent months at Hindmarsh Island
Date/Time
CST
Temp

°C
Wind Pressure Rain
since 9am
mm
Weather Cloud Vis
km
Sea
Height
m
Swell
Dir
 
Speed
knots
Gust
knots
hPa Trend Height
m
Period
s
Dir
01/05:30am 12.5 SSW 16 19 1024.8 - 2.6 - - - - - - -
01/05:00am 12.3 SSW 17 19 1024.4 - 2.6 - - - - - - -
01/04:30am 12.3 SSW 17 21 1023.9 - 2.6 - - - - - - -
01/04:00am 12.2 S 18 21 1023.7 - 2.6 - - - - - - -
01/03:30am 12.6 SSW 15 18 1023.4 - 2.6 - - - - - - -
01/03:00am 12.5 SSW 19 23 1023.2 - 2.6 - - - - - - -
01/02:30am 12.9 SSW 17 23 1022.9 - 2.6 - - - - - - -
01/02:00am 12.8 S 19 22 1022.6 - 2.6 - - - - - - -
01/01:30am 12.6 SSW 17 22 1022.8 - 2.6 - - - - - - -
01/01:00am 12.9 SSW 18 21 1022.6 - 2.6 - - - - - - -
01/12:30am 12.9 SSW 18 22 1022.6 - 2.6 - - - - - - -
01/12:00am 12.7 SSW 15 24 1022.4 - 2.6 - - - - - - -
 
Date/Time
CST
Temp

°C
Wind Pressure Rain
since 9am
mm
Weather Cloud Vis
km
Sea
Height
m
Swell
Dir
 
Speed
knots
Gust
knots
hPa Trend Height
m
Period
s
Dir
30/11:30pm 12.7 SSW 18 22 1022.1 - 2.6 - - - - - - -
30/11:00pm 12.5 SSW 18 23 1022.1 - 2.6 - - - - - - -
30/10:30pm 12.6 SSW 21 26 1021.6 - 2.6 - - - - - - -
30/10:00pm 12.5 SW 21 26 1021.5 - 2.6 - - - - - - -
30/09:32pm 12.6 SW 17 27 1021.2 - 2.6 - - - - - - -
30/09:30pm 12.4 SW 17 26 1021.4 - 2.6 - - - - - - -
30/09:10pm 12.7 WSW 15 26 1020.9 - 2.6 - - - - - - -
30/09:00pm 12.2 WSW 13 19 1020.9 - 2.6 - - - - - - -
30/08:30pm 12.4 WSW 15 21 1020.5 - 2.6 - - - - - - -
30/08:00pm 12.1 WSW 17 24 1020.3 - 2.6 - - - - - - -
30/07:30pm 12.2 WSW 18 25 1019.7 - 2.4 - - - - - - -
30/07:03pm 12.5 SW 23 33 1018.9 - 2.4 - - - - - - -
30/07:00pm 13.6 SW 20 28 1018.9 - 2.2 - - - - - - -
30/06:53pm 14.1 WSW 16 27 1018.7 - 2.2 - - - - - - -
30/06:30pm 14.2 WSW 18 25 1018.3 - 2.2 - - - - - - -
30/06:23pm 14.1 WSW 20 30 1018.1 - 2.2 - - - - - - -
30/06:00pm 14.3 SW 21 27 1017.6 - 2.2 - - - - - - -
30/05:30pm 14.7 SW 21 28 1017.1 - 2.2 - - - - - - -
30/05:00pm 14.9 SW 23 28 1016.6 - 2.2 - - - - - - -
30/04:30pm 15.5 SW 22 28 1016.1 - 2.2 - - - - - - -
30/04:00pm 15.6 SW 23 30 1015.7 - 2.2 - - - - - - -
30/03:30pm 15.5 SW 26 33 1015.4 - 2.2 - - - - - - -
30/03:00pm 14.6 SW 24 29 1015.2 - 2.2 - - - - - - -
30/02:30pm 14.6 WSW 17 26 1014.9 - 2.2 - - - - - - -
30/02:29pm 14.6 WSW 16 26 1014.9 - 2.2 - - - - - - -
30/02:00pm 13.9 WSW 19 25 1014.7 - 2.2 - - - - - - -
30/01:30pm 13.9 WSW 22 29 1014.3 - 2.0 - - - - - - -
30/01:00pm 13.8 SW 24 34 1013.8 - 0.0 - - - - - - -
30/12:52pm 16.3 SW 25 30 1013.7 - 0.0 - - - - - - -
30/12:30pm 19.0 W 24 37 1012.9 - 0.0 - - - - - - -
30/12:00pm 19.3 WNW 29 42 1012.5 - 0.0 - - - - - - -
30/11:30am 18.8 W 28 39 1012.2 - 0.0 - - - - - - -
30/11:02am 18.8 W 29 40 1011.9 - 0.0 - - - - - - -
30/11:00am 18.9 W 28 37 1011.8 - 0.0 - - - - - - -
30/10:38am 18.4 W 26 45 1012.0 - 0.0 - - - - - - -
30/10:30am 18.5 WNW 25 34 1012.1 - 0.0 - - - - - - -
30/10:01am 18.0 W 26 37 1011.9 - 0.0 - - - - - - -
30/10:00am 18.2 WNW 26 35 1012.0 - 0.0 - - - - - - -
30/09:30am 18.2 WNW 23 34 1011.9 - 0.0 - - - - - - -
30/09:00am 18.1 WNW 20 31 1011.8 - 0.0 Fine Mostly cloudy 12 - - - -
30/08:30am 17.8 WNW 20 30 1011.2 - 0.0 - - - - - - -
30/08:12am 17.7 WNW 19 29 1011.3 - 0.0 - - - - - - -
30/08:00am 17.9 WNW 21 29 1011.4 - 0.0 - - - - - - -
30/07:40am 17.6 WNW 16 26 1011.3 - 0.0 - - - - - - -
30/07:30am 17.2 WNW 16 23 1011.3 - 0.0 - - - - - - -
30/07:19am 17.0 W 16 28 1011.2 - 0.0 - - - - - - -
30/07:00am 16.0 NW 11 17 1010.4 - 0.0 - - - - - - -
30/06:30am 14.5 NNW 9 15 1010.6 - 0.0 - - - - - - -
30/06:00am 14.2 NNW 11 16 1010.3 - 0.0 - - - - - - -
30/05:30am 12.8 NNW 10 13 1010.5 - 0.0 - - - - - - -
30/05:00am 13.4 N 13 16 1010.1 - 0.0 - - - - - - -
30/04:30am 13.2 N 12 16 1009.8 - 0.0 - - - - - - -
30/04:00am 13.1 NNW 9 12 1010.1 - 0.0 - - - - - - -
30/03:30am 13.3 NNW 8 10 1010.3 - 0.0 - - - - - - -
30/03:00am 13.2 NNW 9 11 1010.8 - 0.0 - - - - - - -
30/02:30am 13.1 NNW 9 12 1010.8 - 0.0 - - - - - - -
30/02:00am 13.3 NNW 12 15 1011.3 - 0.0 - - - - - - -
30/01:30am 13.2 NNW 12 15 1011.8 - 0.0 - - - - - - -
30/01:00am 13.3 NW 12 15 1012.1 - 0.0 - - - - - - -
30/12:30am 13.7 NNW 13 16 1012.3 - 0.0 - - - - - - -
30/12:00am 13.9 NW 11 16 1012.9 - 0.0 - - - - - - -
 
Date/Time
CST
Temp

°C
Wind Pressure Rain
since 9am
mm
Weather Cloud Vis
km
Sea
Height
m
Swell
Dir
 
Speed
knots
Gust
knots
hPa Trend Height
m
Period
s
Dir
29/11:30pm 14.2 WNW 12 16 1013.5 - 0.0 - - - - - - -
29/11:00pm 14.5 WNW 14 19 1013.6 - 0.0 - - - - - - -
29/10:30pm 14.3 WNW 13 17 1013.6 - 0.0 - - - - - - -
29/10:00pm 14.3 WNW 13 17 1013.7 - 0.0 - - - - - - -
29/09:30pm 14.4 NW 12 15 1013.6 - 0.0 - - - - - - -
29/09:00pm 14.6 WNW 10 16 1013.9 - 0.0 - - - - - - -
29/08:30pm 14.5 WNW 8 14 1013.9 - 0.0 - - - - - - -
29/08:00pm 14.9 W 8 10 1013.7 - 0.0 - - - - - - -
29/07:30pm 15.1 W 7 8 1013.3 - 0.0 - - - - - - -
29/07:00pm 15.7 WSW 8 11 1013.1 - 0.0 - - - - - - -
29/06:30pm 16.9 W 5 8 1012.7 - 0.0 - - - - - - -
29/06:00pm 17.8 WNW 7 10 1012.6 - 0.0 - - - - - - -
29/05:30pm 18.6 WNW 13 20 1012.6 - 0.0 - - - - - - -
29/05:00pm 19.2 WNW 10 15 1012.4 - 0.0 - - - - - - -
29/04:30pm 18.9 NW 17 24 1012.4 - 0.0 - - - - - - -
29/04:00pm 19.4 NW 16 22 1012.4 - 0.0 - - - - - - -
29/03:30pm 20.0 WNW 16 22 1012.3 - 0.0 - - - - - - -
29/03:01pm 19.6 WNW 16 26 1012.2 - 0.0 - - - - - - -
29/03:00pm 20.3 WNW 16 21 1012.3 - 0.0 - - - - - - -
29/02:30pm 19.4 NW 15 22 1012.5 - 0.0 - - - - - - -
29/02:00pm 20.7 NW 16 22 1012.8 - 0.0 - - - - - - -
29/01:30pm 20.6 WNW 14 20 1013.1 - 0.0 - - - - - - -
29/01:00pm 20.5 W 12 18 1013.5 - 0.0 - - - - - - -
29/12:30pm 18.7 WNW 13 19 1013.8 - 0.0 - - - - - - -
29/12:00pm 18.7 NW 14 18 1014.1 - 0.0 - - - - - - -
29/11:30am 18.6 WNW 13 18 1014.5 - 0.0 - - - - - - -
29/11:00am 18.5 W 12 16 1014.9 - 0.0 - - - - - - -
29/10:30am 17.7 NW 14 20 1015.0 - 0.0 - - - - - - -
29/10:20am 17.3 NW 15 19 1015.1 - 0.0 - - - - - - -
29/10:00am 18.6 SSW 5 9 1015.0 - 0.0 - - - - - - -
29/09:30am 16.9 SSW 6 8 1015.1 - 0.0 - - - - - - -
29/09:00am 17.2 SW 6 9 1015.0 - 0.0 Fine Mostly cloudy 8 - - - -
29/08:30am 16.2 WSW 6 9 1015.0 - 0.0 - - - - - - -
29/08:00am 16.1 W 4 5 1014.8 - 0.0 - - - - - - -
29/07:30am 15.1 WNW 6 9 1014.6 - 0.0 - - - - - - -
29/07:00am 14.7 W 5 7 1014.3 - 0.0 - - - - - - -
29/06:30am 14.3 WSW 8 11 1014.2 - 0.0 - - - - - - -
29/06:00am 14.6 WNW 10 17 1013.9 - 0.0 - - - - - - -
29/05:30am 14.1 WNW 10 14 1013.6 - 0.0 - - - - - - -
29/05:00am 14.2 WNW 11 16 1013.4 - 0.0 - - - - - - -
29/04:30am 14.5 WNW 12 18 1012.8 - 0.0 - - - - - - -
29/04:00am 14.5 WNW 15 20 1012.8 - 0.0 - - - - - - -
29/03:30am 14.5 WNW 11 14 1012.8 - 0.0 - - - - - - -
29/03:00am 14.5 WNW 10 16 1013.0 - 0.0 - - - - - - -
29/02:30am 14.9 WNW 15 21 1012.5 - 0.0 - - - - - - -
29/02:00am 15.1 W 14 21 1012.4 - 0.0 - - - - - - -
29/01:30am 15.2 W 20 26 1012.1 - 0.0 - - - - - - -
29/01:00am 15.1 W 18 26 1012.5 - 0.0 - - - - - - -
 
Date/Time
CST
Temp

°C
Wind Pressure Rain
since 9am
mm
Weather Cloud Vis
km
Sea
Height
m
Swell
Dir
 
Speed
knots
Gust
knots
hPa Trend Height
m
Period
s
Dir
28/05:30pm 18.3 W 14 19 1008.6 - 0.0 - - - - - - -
28/03:30pm 19.1 SW 18 26 1006.6 - 0.0 - - - - - - -
28/01:30pm 28.4 NW 31 45 1004.6 - 0.0 - - - - - - -
28/01:00pm 28.2 NW 30 43 1004.9 - 0.0 - - - - - - -
28/12:30pm 28.0 NW 31 42 1005.0 - 0.0 - - - - - - -
28/11:00am 26.4 NW 36 53 1004.9 - 0.0 - - - - - - -
28/10:33am 26.3 NNW 39 52 1004.7 - 0.0 - - - - - - -
28/10:30am 26.7 NNW 25 51 1005.1 - 0.0 - - - - - - -
28/10:00am 26.1 NW 39 59 1004.9 - 0.0 - - - - - - -
28/09:30am 26.9 NNW 35 58 1005.2 - 0.0 - - - - - - -
28/09:21am 27.0 NNW 37 58 1004.7 - 0.0 - - - - - - -
28/09:00am 26.7 NNW 30 48 1005.4 - 0.0 Fine Mostly clear 20 - - - -
28/08:30am 26.6 NNW 32 47 1005.7 - 0.0 - - - - - - -
28/08:00am 26.4 NNW 28 45 1005.4 - 0.0 - - - - - - -
28/07:30am 26.1 NNW 27 40 1004.2 - 0.0 - - - - - - -
28/07:00am 25.7 NNW 27 40 1004.4 - 0.0 - - - - - - -
28/06:30am 25.6 NNW 26 43 1004.9 - 0.0 - - - - - - -
28/06:00am 25.6 NNW 24 35 1005.1 - 0.0 - - - - - - -

Other Formats:

Comma delimited format used in spreadsheet applications
http://www.bom.gov.au/fwo/IDS60701/IDS60701.94677.axf

JavaScript Object Notation format (JSON) in row-major order
http://www.bom.gov.au/fwo/IDS60701/IDS60701.94677.json